createdAt,value
2022-11-06T00:00:19.144Z,951.8
2022-11-06T00:01:25.307Z,951.8
2022-11-06T00:02:31.469Z,951.8
2022-11-06T00:03:37.740Z,951.8
2022-11-06T00:04:43.828Z,951.8
2022-11-06T00:05:50.007Z,951.8
2022-11-06T00:06:56.230Z,951.8
2022-11-06T00:08:02.337Z,951.8
2022-11-06T00:09:08.532Z,951.8
2022-11-06T00:10:14.735Z,951.8
2022-11-06T00:11:19.926Z,951.8
2022-11-06T00:12:26.036Z,951.8
2022-11-06T00:13:32.248Z,951.8
2022-11-06T00:14:38.376Z,951.7
2022-11-06T00:15:44.601Z,951.7
2022-11-06T00:16:50.767Z,951.6
2022-11-06T00:17:56.939Z,951.6
2022-11-06T00:19:03.078Z,951.7
2022-11-06T00:20:09.220Z,951.7
2022-11-06T00:21:15.398Z,951.7
2022-11-06T00:22:21.604Z,951.7
2022-11-06T00:23:27.723Z,951.7
2022-11-06T00:24:33.917Z,951.7
2022-11-06T00:25:39.117Z,951.7
2022-11-06T00:26:45.311Z,951.8
2022-11-06T00:27:51.452Z,951.8
2022-11-06T00:28:57.694Z,951.8
2022-11-06T00:30:03.846Z,951.8
2022-11-06T00:31:09.980Z,951.8
2022-11-06T00:32:16.168Z,951.8
2022-11-06T00:33:22.292Z,951.8
2022-11-06T00:34:28.506Z,951.8
2022-11-06T00:35:34.633Z,951.8
2022-11-06T00:36:40.851Z,951.8
2022-11-06T00:37:47.013Z,951.8
2022-11-06T00:38:53.133Z,951.8
2022-11-06T00:39:58.338Z,951.8
2022-11-06T00:41:04.482Z,951.9
2022-11-06T00:42:10.714Z,951.9
2022-11-06T00:43:16.877Z,951.9
2022-11-06T00:44:23.066Z,951.9
2022-11-06T00:45:29.199Z,952
2022-11-06T00:46:34.411Z,952
2022-11-06T00:47:40.569Z,952
2022-11-06T00:48:46.711Z,952
2022-11-06T00:49:52.890Z,952
2022-11-06T00:50:59.071Z,952.1
2022-11-06T00:52:05.275Z,952.1
2022-11-06T00:53:11.455Z,952
2022-11-06T00:54:17.579Z,952
2022-11-06T00:55:23.728Z,952
2022-11-06T00:56:29.943Z,952
2022-11-06T00:57:36.113Z,952
2022-11-06T00:58:42.331Z,952
2022-11-06T00:59:48.466Z,952
2022-11-06T01:00:53.597Z,952
2022-11-06T01:01:59.862Z,952
2022-11-06T01:03:05.981Z,952
2022-11-06T01:04:12.197Z,952
2022-11-06T01:05:18.278Z,952
2022-11-06T01:06:24.447Z,952
2022-11-06T01:07:30.625Z,952
2022-11-06T01:08:36.861Z,951.9
2022-11-06T01:09:42.987Z,951.9
2022-11-06T01:10:49.134Z,951.9
2022-11-06T01:11:55.289Z,951.9
2022-11-06T01:13:01.484Z,951.8
2022-11-06T01:14:07.638Z,951.9
2022-11-06T01:15:12.842Z,951.8
2022-11-06T01:16:19.010Z,951.8
2022-11-06T01:17:25.161Z,951.8
2022-11-06T01:18:31.345Z,951.8
2022-11-06T01:19:37.519Z,951.8
2022-11-06T01:20:43.674Z,951.8
2022-11-06T01:21:49.873Z,951.8
2022-11-06T01:22:56.009Z,951.8
2022-11-06T01:24:02.242Z,951.8
2022-11-06T01:25:08.448Z,951.8
2022-11-06T01:26:14.592Z,951.8
2022-11-06T01:27:20.782Z,951.7
2022-11-06T01:28:26.893Z,951.7
2022-11-06T01:29:32.087Z,951.8
2022-11-06T01:30:38.228Z,951.8
2022-11-06T01:31:44.408Z,951.8
2022-11-06T01:32:50.560Z,951.7
2022-11-06T01:33:56.742Z,951.7
2022-11-06T01:35:02.954Z,951.7
2022-11-06T01:36:09.121Z,951.7
2022-11-06T01:37:15.244Z,951.7
2022-11-06T01:38:21.446Z,951.6
2022-11-06T01:39:27.577Z,951.7
2022-11-06T01:40:33.782Z,951.7
2022-11-06T01:41:39.962Z,951.7
2022-11-06T01:42:46.103Z,951.7
2022-11-06T01:43:51.284Z,951.7
2022-11-06T01:44:57.480Z,951.7
2022-11-06T01:46:03.623Z,951.7
2022-11-06T01:47:09.791Z,951.7
2022-11-06T01:48:15.999Z,951.7
2022-11-06T01:49:22.160Z,951.7
2022-11-06T01:50:28.318Z,951.7
2022-11-06T01:51:34.552Z,951.7
2022-11-06T01:52:40.714Z,951.6
2022-11-06T01:53:46.830Z,951.6
2022-11-06T01:54:53.016Z,951.6
2022-11-06T01:55:59.196Z,951.6
2022-11-06T01:57:05.369Z,951.6
2022-11-06T01:58:10.501Z,951.6
2022-11-06T01:59:16.681Z,951.6
2022-11-06T02:00:22.858Z,951.6
2022-11-06T02:01:29.021Z,951.6
2022-11-06T02:02:35.179Z,951.6
2022-11-06T02:03:41.347Z,951.6
2022-11-06T02:04:47.581Z,951.6
2022-11-06T02:05:53.700Z,951.5
2022-11-06T02:06:59.913Z,951.5
2022-11-06T02:08:06.075Z,951.5
2022-11-06T02:09:12.214Z,951.4
2022-11-06T02:10:18.377Z,951.4
2022-11-06T02:11:24.548Z,951.5
2022-11-06T02:12:29.731Z,951.4
2022-11-06T02:13:35.900Z,951.4
2022-11-06T02:14:42.083Z,951.4
2022-11-06T02:15:48.273Z,951.4
2022-11-06T02:16:54.458Z,951.3
2022-11-06T02:18:00.606Z,951.3
2022-11-06T02:19:06.837Z,951.3
2022-11-06T02:20:12.915Z,951.2
2022-11-06T02:21:19.121Z,951.2
2022-11-06T02:22:25.281Z,951.1
2022-11-06T02:23:31.432Z,951.1
2022-11-06T02:24:37.695Z,951.1
2022-11-06T02:25:43.770Z,951.1
2022-11-06T02:26:48.976Z,951.1
2022-11-06T02:27:55.156Z,951.1
2022-11-06T02:29:01.321Z,951
2022-11-06T02:30:07.489Z,951
2022-11-06T02:31:13.645Z,951
2022-11-06T02:32:19.866Z,951
2022-11-06T02:33:26.002Z,951
2022-11-06T02:34:32.203Z,951
2022-11-06T02:35:38.322Z,951
2022-11-06T02:36:44.498Z,951
2022-11-06T02:37:50.665Z,951
2022-11-06T02:38:56.847Z,951
2022-11-06T02:40:03.033Z,951.1
2022-11-06T02:41:08.231Z,951.1
2022-11-06T02:42:14.382Z,951.1
2022-11-06T02:43:20.551Z,951
2022-11-06T02:44:26.699Z,951
2022-11-06T02:45:32.878Z,950.9
2022-11-06T02:46:39.065Z,950.9
2022-11-06T02:47:45.261Z,950.9
2022-11-06T02:48:51.413Z,951
2022-11-06T02:49:57.576Z,951
2022-11-06T02:51:03.736Z,951
2022-11-06T02:52:09.884Z,951
2022-11-06T02:53:16.115Z,950.9
2022-11-06T02:54:22.231Z,950.9
2022-11-06T02:55:27.448Z,950.9
2022-11-06T02:56:33.614Z,950.9
2022-11-06T02:57:39.778Z,950.8
2022-11-06T02:58:45.968Z,950.8
2022-11-06T02:59:52.115Z,950.7
2022-11-06T03:00:58.276Z,950.6
2022-11-06T03:02:04.450Z,950.6
2022-11-06T03:03:10.621Z,950.6
2022-11-06T03:04:16.824Z,950.6
2022-11-06T03:05:22.989Z,950.6
2022-11-06T03:06:29.189Z,950.6
2022-11-06T03:07:35.294Z,950.6
2022-11-06T03:08:41.463Z,950.6
2022-11-06T03:09:46.662Z,950.6
2022-11-06T03:10:52.823Z,950.6
2022-11-06T03:11:58.990Z,950.5
2022-11-06T03:13:05.188Z,950.5
2022-11-06T03:14:11.360Z,950.4
2022-11-06T03:15:17.566Z,950.4
2022-11-06T03:16:23.666Z,950.4
2022-11-06T03:17:29.904Z,950.4
2022-11-06T03:18:36.012Z,950.5
2022-11-06T03:19:46.394Z,950.5
2022-11-06T03:20:48.356Z,950.5
2022-11-06T03:21:54.529Z,950.5
2022-11-06T03:23:00.720Z,950.5
2022-11-06T03:24:05.888Z,950.5
2022-11-06T03:25:12.050Z,950.5
2022-11-06T03:26:18.215Z,950.4
2022-11-06T03:27:24.379Z,950.4
2022-11-06T03:28:30.556Z,950.4
2022-11-06T03:29:36.721Z,950.3
2022-11-06T03:30:42.937Z,950.3
2022-11-06T03:31:49.086Z,950.3
2022-11-06T03:32:55.236Z,950.3
2022-11-06T03:34:01.430Z,950.3
2022-11-06T03:35:07.617Z,950.3
2022-11-06T03:36:13.784Z,950.3
2022-11-06T03:37:19.943Z,950.3
2022-11-06T03:38:25.129Z,950.3
2022-11-06T03:39:31.321Z,950.3
2022-11-06T03:40:37.461Z,950.3
2022-11-06T03:41:43.627Z,950.3
2022-11-06T03:42:49.795Z,950.3
2022-11-06T03:43:55.950Z,950.3
2022-11-06T03:45:02.133Z,950.3
2022-11-06T03:46:08.438Z,950.3
2022-11-06T03:47:14.541Z,950.3
2022-11-06T03:48:20.681Z,950.2
2022-11-06T03:49:26.800Z,950.2
2022-11-06T03:50:33.050Z,950.2
2022-11-06T03:51:39.154Z,950.1
2022-11-06T03:52:44.343Z,950.1
2022-11-06T03:53:50.526Z,950.1
2022-11-06T03:54:56.677Z,950.1
2022-11-06T03:56:02.870Z,950.1
2022-11-06T03:57:09.052Z,950.1
2022-11-06T03:58:15.251Z,950.1
2022-11-06T03:59:21.421Z,950.1
2022-11-06T04:00:27.525Z,950.1
2022-11-06T04:01:33.691Z,950.1
2022-11-06T04:02:39.862Z,950.1
2022-11-06T04:03:46.028Z,950
2022-11-06T04:04:52.204Z,950.1
2022-11-06T04:05:58.437Z,950
2022-11-06T04:07:03.581Z,950
2022-11-06T04:08:09.753Z,950
2022-11-06T04:09:15.975Z,950
2022-11-06T04:10:22.139Z,950
2022-11-06T04:11:28.309Z,950
2022-11-06T04:12:34.440Z,950
2022-11-06T04:13:40.604Z,950
2022-11-06T04:14:46.747Z,950
2022-11-06T04:15:52.923Z,950
2022-11-06T04:16:59.110Z,950
2022-11-06T04:18:05.277Z,950
2022-11-06T04:19:11.434Z,950.1
2022-11-06T04:20:17.620Z,950.1
2022-11-06T04:21:22.840Z,950.1
2022-11-06T04:22:28.965Z,950.1
2022-11-06T04:23:35.140Z,950.1
2022-11-06T04:24:41.295Z,950.1
2022-11-06T04:25:47.470Z,950.1
2022-11-06T04:26:53.642Z,950.1
2022-11-06T04:27:58.892Z,950.1
2022-11-06T04:29:05.052Z,950
2022-11-06T04:30:11.175Z,950
2022-11-06T04:31:17.377Z,950
2022-11-06T04:32:23.545Z,950
2022-11-06T04:33:29.682Z,950.1
2022-11-06T04:34:35.873Z,950.1
2022-11-06T04:35:42.034Z,950.1
2022-11-06T04:36:48.201Z,950.1
2022-11-06T04:37:54.382Z,950.1
2022-11-06T04:39:00.532Z,950.1
2022-11-06T04:40:06.705Z,950.1
2022-11-06T04:41:12.888Z,950
2022-11-06T04:42:18.079Z,950
2022-11-06T04:43:24.270Z,950.1
2022-11-06T04:44:30.409Z,950.1
2022-11-06T04:45:36.579Z,950.1
2022-11-06T04:46:42.759Z,950.1
2022-11-06T04:47:48.923Z,950.1
2022-11-06T04:48:55.102Z,950.1
2022-11-06T04:50:01.247Z,950
2022-11-06T04:51:07.418Z,950
2022-11-06T04:52:13.605Z,949.9
2022-11-06T04:53:19.781Z,949.9
2022-11-06T04:54:25.975Z,949.9
2022-11-06T04:55:32.125Z,949.9
2022-11-06T04:56:37.336Z,949.9
2022-11-06T04:57:43.482Z,949.9
2022-11-06T04:58:49.649Z,949.8
2022-11-06T04:59:55.799Z,949.8
2022-11-06T05:01:01.995Z,949.8
2022-11-06T05:02:08.144Z,949.8
2022-11-06T05:03:14.357Z,949.8
2022-11-06T05:04:20.520Z,949.8
2022-11-06T05:05:26.660Z,949.8
2022-11-06T05:06:32.848Z,949.8
2022-11-06T05:07:39.023Z,949.8
2022-11-06T05:08:45.160Z,949.8
2022-11-06T05:09:51.350Z,949.8
2022-11-06T05:10:56.523Z,949.8
2022-11-06T05:12:02.712Z,949.8
2022-11-06T05:13:08.924Z,949.8
2022-11-06T05:14:15.027Z,949.8
2022-11-06T05:15:21.242Z,949.8
2022-11-06T05:16:27.393Z,949.8
2022-11-06T05:17:33.543Z,949.8
2022-11-06T05:18:39.714Z,949.7
2022-11-06T05:19:45.876Z,949.7
2022-11-06T05:20:52.046Z,949.7
2022-11-06T05:21:58.252Z,949.7
2022-11-06T05:23:04.404Z,949.7
2022-11-06T05:24:10.585Z,949.7
2022-11-06T05:25:15.756Z,949.7
2022-11-06T05:26:21.923Z,949.8
2022-11-06T05:27:28.123Z,949.7
2022-11-06T05:28:34.256Z,949.8
2022-11-06T05:29:40.496Z,949.7
2022-11-06T05:30:46.642Z,949.7
2022-11-06T05:31:52.801Z,949.7
2022-11-06T05:32:58.952Z,949.7
2022-11-06T05:34:05.107Z,949.6
2022-11-06T05:35:11.327Z,949.6
2022-11-06T05:36:17.462Z,949.5
2022-11-06T05:37:23.681Z,949.5
2022-11-06T05:38:29.805Z,949.5
2022-11-06T05:39:34.999Z,949.5
2022-11-06T05:40:41.174Z,949.5
2022-11-06T05:41:47.347Z,949.6
2022-11-06T05:42:53.528Z,949.6
2022-11-06T05:43:59.708Z,949.5
2022-11-06T05:45:05.829Z,949.5
2022-11-06T05:46:12.016Z,949.5
2022-11-06T05:47:18.180Z,949.4
2022-11-06T05:48:24.355Z,949.4
2022-11-06T05:49:30.505Z,949.4
2022-11-06T05:50:36.685Z,949.4
2022-11-06T05:51:42.867Z,949.4
2022-11-06T05:52:49.022Z,949.4
2022-11-06T05:53:54.226Z,949.5
2022-11-06T05:55:00.393Z,949.5
2022-11-06T05:56:06.608Z,949.5
2022-11-06T05:57:12.766Z,949.5
2022-11-06T05:58:18.900Z,949.5
2022-11-06T05:59:25.069Z,949.5
2022-11-06T06:00:31.246Z,949.5
2022-11-06T06:01:37.404Z,949.4
2022-11-06T06:02:43.576Z,949.4
2022-11-06T06:03:49.747Z,949.4
2022-11-06T06:04:55.919Z,949.4
2022-11-06T06:06:02.106Z,949.4
2022-11-06T06:07:08.267Z,949.4
2022-11-06T06:08:13.455Z,949.4
2022-11-06T06:09:19.619Z,949.4
2022-11-06T06:10:25.794Z,949.4
2022-11-06T06:11:31.963Z,949.4
2022-11-06T06:12:38.146Z,949.4
2022-11-06T06:13:44.302Z,949.3
2022-11-06T06:14:50.453Z,949.3
2022-11-06T06:15:56.622Z,949.2
2022-11-06T06:17:02.800Z,949.2
2022-11-06T06:18:08.983Z,949.1
2022-11-06T06:19:15.171Z,949.1
2022-11-06T06:20:21.327Z,949
2022-11-06T06:21:27.490Z,949
2022-11-06T06:22:32.668Z,948.9
2022-11-06T06:23:38.883Z,948.9
2022-11-06T06:24:45.011Z,948.9
2022-11-06T06:25:51.186Z,948.9
2022-11-06T06:26:57.398Z,948.8
2022-11-06T06:28:03.522Z,948.8
2022-11-06T06:29:09.696Z,948.8
2022-11-06T06:30:15.864Z,948.8
2022-11-06T06:31:22.030Z,948.8
2022-11-06T06:32:28.216Z,948.7
2022-11-06T06:33:34.356Z,948.7
2022-11-06T06:34:40.559Z,948.7
2022-11-06T06:35:46.729Z,948.7
2022-11-06T06:36:51.919Z,948.6
2022-11-06T06:37:58.093Z,948.6
2022-11-06T06:39:04.283Z,948.5
2022-11-06T06:40:10.402Z,948.5
2022-11-06T06:41:16.572Z,948.4
2022-11-06T06:42:22.750Z,948.4
2022-11-06T06:43:28.949Z,948.4
2022-11-06T06:44:35.107Z,948.4
2022-11-06T06:45:41.268Z,948.4
2022-11-06T06:46:47.439Z,948.4
2022-11-06T06:47:53.604Z,948.3
2022-11-06T06:48:59.792Z,948.3
2022-11-06T06:50:05.937Z,948.3
2022-11-06T06:51:11.163Z,948.3
2022-11-06T06:52:17.295Z,948.3
2022-11-06T06:53:23.495Z,948.3
2022-11-06T06:54:29.669Z,948.3
2022-11-06T06:55:35.824Z,948.3
2022-11-06T06:56:41.995Z,948.3
2022-11-06T06:57:48.200Z,948.2
2022-11-06T06:58:54.307Z,948.2
2022-11-06T07:00:00.492Z,948.2
2022-11-06T07:01:06.650Z,948.2
2022-11-06T07:02:12.820Z,948.1
2022-11-06T07:03:19.007Z,948.1
2022-11-06T07:04:25.218Z,948.1
2022-11-06T07:05:30.356Z,948.1
2022-11-06T07:06:36.515Z,948
2022-11-06T07:07:42.692Z,948
2022-11-06T07:08:48.875Z,948
2022-11-06T07:09:55.040Z,947.9
2022-11-06T07:11:01.201Z,947.9
2022-11-06T07:12:07.419Z,947.8
2022-11-06T07:13:13.590Z,947.8
2022-11-06T07:14:19.721Z,947.8
2022-11-06T07:15:25.889Z,947.7
2022-11-06T07:16:32.051Z,947.7
2022-11-06T07:17:38.228Z,947.7
2022-11-06T07:18:44.389Z,947.8
2022-11-06T07:19:49.572Z,947.8
2022-11-06T07:20:55.764Z,947.7
2022-11-06T07:22:01.913Z,947.7
2022-11-06T07:23:08.088Z,947.7
2022-11-06T07:24:14.322Z,947.7
2022-11-06T07:25:20.437Z,947.7
2022-11-06T07:26:26.617Z,947.7
2022-11-06T07:27:32.770Z,947.7
2022-11-06T07:28:38.977Z,947.8
2022-11-06T07:29:45.119Z,947.8
2022-11-06T07:30:51.313Z,947.7
2022-11-06T07:31:57.499Z,947.7
2022-11-06T07:33:03.668Z,947.7
2022-11-06T07:34:08.818Z,947.7
2022-11-06T07:35:15.015Z,947.7
2022-11-06T07:36:21.167Z,947.7
2022-11-06T07:37:27.324Z,947.7
2022-11-06T07:38:33.524Z,947.8
2022-11-06T07:39:39.669Z,947.8
2022-11-06T07:40:45.855Z,947.9
2022-11-06T07:41:52.044Z,947.8
2022-11-06T07:42:58.173Z,947.9
2022-11-06T07:44:04.378Z,948
2022-11-06T07:45:10.537Z,948
2022-11-06T07:46:16.698Z,948
2022-11-06T07:47:22.863Z,948
2022-11-06T07:48:28.043Z,948.1
2022-11-06T07:49:34.215Z,948.1
2022-11-06T07:50:40.393Z,948.1
2022-11-06T07:51:46.538Z,948.2
2022-11-06T07:52:52.700Z,948.2
2022-11-06T07:53:58.890Z,948.3
2022-11-06T07:55:05.073Z,948.3
2022-11-06T07:56:11.279Z,948.4
2022-11-06T07:57:17.412Z,948.4
2022-11-06T07:58:23.605Z,948.4
2022-11-06T07:59:29.816Z,948.4
2022-11-06T08:00:35.929Z,948.4
2022-11-06T08:01:42.072Z,948.5
2022-11-06T08:02:47.272Z,948.5
2022-11-06T08:03:53.461Z,948.5
2022-11-06T08:04:59.653Z,948.5
2022-11-06T08:06:05.853Z,948.5
2022-11-06T08:07:11.956Z,948.5
2022-11-06T08:08:18.192Z,948.5
2022-11-06T08:09:23.290Z,948.5
2022-11-06T08:10:29.483Z,948.5
2022-11-06T08:11:35.729Z,948.6
2022-11-06T08:12:41.821Z,948.6
2022-11-06T08:13:48.007Z,948.6
2022-11-06T08:14:54.143Z,948.5
2022-11-06T08:16:00.361Z,948.5
2022-11-06T08:17:06.488Z,948.5
2022-11-06T08:18:12.671Z,948.6
2022-11-06T08:19:18.834Z,948.5
2022-11-06T08:20:25.102Z,948.5
2022-11-06T08:21:31.185Z,948.5
2022-11-06T08:22:37.364Z,948.5
2022-11-06T08:23:42.540Z,948.5
2022-11-06T08:24:48.692Z,948.5
2022-11-06T08:25:54.864Z,948.5
2022-11-06T08:27:01.070Z,948.5
2022-11-06T08:28:07.248Z,948.5
2022-11-06T08:29:13.453Z,948.5
2022-11-06T08:31:25.795Z,948.6
2022-11-06T08:32:31.895Z,948.6
2022-11-06T08:33:38.095Z,948.6
2022-11-06T08:34:44.234Z,948.6
2022-11-06T08:35:50.420Z,948.7
2022-11-06T08:36:56.599Z,948.7
2022-11-06T08:38:01.787Z,948.7
2022-11-06T08:39:07.995Z,948.7
2022-11-06T08:40:14.101Z,948.7
2022-11-06T08:41:20.321Z,948.7
2022-11-06T08:42:26.461Z,948.7
2022-11-06T08:43:32.648Z,948.7
2022-11-06T08:44:38.832Z,948.7
2022-11-06T08:45:44.975Z,948.8
2022-11-06T08:46:51.127Z,948.8
2022-11-06T08:47:57.304Z,948.8
2022-11-06T08:49:03.501Z,948.8
2022-11-06T08:50:09.629Z,948.8
2022-11-06T08:51:15.823Z,948.8
2022-11-06T08:52:21.102Z,948.8
2022-11-06T08:53:27.284Z,948.8
2022-11-06T08:54:33.323Z,948.8
2022-11-06T08:55:39.498Z,948.7
2022-11-06T08:56:45.755Z,948.7
2022-11-06T08:57:51.832Z,948.7
2022-11-06T08:58:58.129Z,948.6
2022-11-06T09:00:04.190Z,948.5
2022-11-06T09:01:10.344Z,948.5
2022-11-06T09:02:16.576Z,948.4
2022-11-06T09:03:22.682Z,948.4
2022-11-06T09:04:28.860Z,948.4
2022-11-06T09:05:35.023Z,948.3
2022-11-06T09:06:40.284Z,948.3
2022-11-06T09:07:46.450Z,948.2
2022-11-06T09:08:52.650Z,948.2
2022-11-06T09:09:58.728Z,948.2
2022-11-06T09:11:04.882Z,948.2
2022-11-06T09:12:11.066Z,948.2
2022-11-06T09:13:17.241Z,948.2
2022-11-06T09:14:23.409Z,948.2
2022-11-06T09:15:29.611Z,948.2
2022-11-06T09:16:35.729Z,948.1
2022-11-06T09:17:41.900Z,948
2022-11-06T09:18:48.102Z,948
2022-11-06T09:19:54.244Z,948
2022-11-06T09:20:59.467Z,948
2022-11-06T09:22:05.592Z,947.9
2022-11-06T09:23:11.754Z,947.9
2022-11-06T09:25:24.180Z,947.7
2022-11-06T09:26:30.277Z,947.6
2022-11-06T09:27:36.492Z,947.6
2022-11-06T09:28:42.605Z,947.5
2022-11-06T09:29:48.775Z,947.5
2022-11-06T09:30:54.964Z,947.4
2022-11-06T09:32:01.135Z,947.4
2022-11-06T09:33:07.315Z,947.3
2022-11-06T09:34:13.539Z,947.3
2022-11-06T09:35:18.656Z,947.3
2022-11-06T09:36:24.834Z,947.2
2022-11-06T09:37:31.046Z,947.2
2022-11-06T09:38:37.137Z,947.2
2022-11-06T09:39:43.496Z,947.2
2022-11-06T09:40:49.478Z,947.2
2022-11-06T09:41:55.642Z,947.1
2022-11-06T09:43:01.820Z,947.1
2022-11-06T09:44:08.016Z,947.2
2022-11-06T09:45:14.205Z,947.1
2022-11-06T09:46:20.394Z,947.1
2022-11-06T09:47:26.665Z,947.2
2022-11-06T09:48:32.796Z,947.1
2022-11-06T09:49:37.982Z,947.1
2022-11-06T09:50:44.023Z,947.1
2022-11-06T09:51:50.259Z,947.1
2022-11-06T09:52:56.356Z,947.1
2022-11-06T09:54:02.579Z,947.1
2022-11-06T09:55:08.810Z,947.1
2022-11-06T09:56:14.883Z,947.1
2022-11-06T09:57:21.071Z,947
2022-11-06T09:58:27.206Z,947
2022-11-06T09:59:33.375Z,947
2022-11-06T10:00:39.657Z,946.9
2022-11-06T10:01:45.740Z,946.9
2022-11-06T10:02:51.942Z,946.9
2022-11-06T10:03:57.064Z,946.9
2022-11-06T10:05:03.248Z,946.9
2022-11-06T10:06:09.429Z,946.9
2022-11-06T10:07:15.583Z,946.8
2022-11-06T10:08:21.784Z,946.8
2022-11-06T10:09:27.946Z,946.8
2022-11-06T10:10:34.106Z,946.7
2022-11-06T10:11:40.297Z,946.6
2022-11-06T10:12:46.442Z,946.6
2022-11-06T10:13:52.655Z,946.7
2022-11-06T10:14:58.811Z,946.6
2022-11-06T10:16:04.974Z,946.6
2022-11-06T10:17:11.113Z,946.6
2022-11-06T10:18:16.331Z,946.6
2022-11-06T10:19:22.574Z,946.6
2022-11-06T10:20:28.630Z,946.5
2022-11-06T10:21:34.795Z,946.5
2022-11-06T10:22:41.008Z,946.4
2022-11-06T10:23:47.141Z,946.3
2022-11-06T10:24:53.329Z,946.3
2022-11-06T10:25:59.511Z,946.2
2022-11-06T10:27:05.717Z,946.2
2022-11-06T10:28:11.810Z,946.2
2022-11-06T10:29:17.979Z,946.2
2022-11-06T10:30:24.168Z,946.2
2022-11-06T10:31:30.332Z,946.3
2022-11-06T10:32:35.601Z,946.3
2022-11-06T10:33:41.678Z,946.3
2022-11-06T10:34:47.840Z,946.3
2022-11-06T10:35:54.025Z,946.3
2022-11-06T10:37:00.210Z,946.4
2022-11-06T10:38:06.383Z,946.4
2022-11-06T10:39:12.535Z,946.4
2022-11-06T10:40:18.707Z,946.4
2022-11-06T10:41:24.884Z,946.3
2022-11-06T10:42:31.042Z,946.3
2022-11-06T10:43:37.335Z,946.2
2022-11-06T10:44:43.459Z,946.3
2022-11-06T10:45:49.569Z,946.3
2022-11-06T10:46:54.729Z,946.3
2022-11-06T10:48:00.940Z,946.2
2022-11-06T10:49:07.091Z,946.1
2022-11-06T10:50:13.279Z,946.1
2022-11-06T10:51:19.401Z,946.1
2022-11-06T10:52:25.593Z,946.2
2022-11-06T10:53:31.758Z,946.3
2022-11-06T10:54:37.937Z,946.3
2022-11-06T10:55:44.087Z,946.3
2022-11-06T10:56:50.324Z,946.3
2022-11-06T10:57:56.425Z,946.3
2022-11-06T10:59:02.629Z,946.3
2022-11-06T11:00:08.815Z,946.3
2022-11-06T11:01:13.955Z,946.2
2022-11-06T11:02:20.125Z,946.2
2022-11-06T11:03:26.281Z,946.1
2022-11-06T11:04:32.476Z,946.1
2022-11-06T11:05:38.651Z,946
2022-11-06T11:06:44.823Z,946
2022-11-06T11:07:50.964Z,945.9
2022-11-06T11:08:57.168Z,945.9
2022-11-06T11:10:03.311Z,945.9
2022-11-06T11:11:09.487Z,945.9
2022-11-06T11:12:15.660Z,945.9
2022-11-06T11:13:21.810Z,946
2022-11-06T11:14:28.087Z,946
2022-11-06T11:15:33.168Z,946
2022-11-06T11:16:39.367Z,946
2022-11-06T11:17:45.516Z,945.9
2022-11-06T11:18:51.700Z,945.9
2022-11-06T11:19:57.900Z,945.8
2022-11-06T11:21:04.036Z,945.7
2022-11-06T11:22:10.234Z,945.7
2022-11-06T11:23:16.367Z,945.7
2022-11-06T11:24:22.582Z,945.7
2022-11-06T11:25:28.753Z,945.6
2022-11-06T11:26:34.870Z,945.6
2022-11-06T11:27:41.045Z,945.6
2022-11-06T11:28:47.203Z,945.6
2022-11-06T11:29:52.389Z,945.6
2022-11-06T11:30:58.562Z,945.5
2022-11-06T11:32:04.738Z,945.5
2022-11-06T11:33:10.921Z,945.5
2022-11-06T11:34:17.083Z,945.5
2022-11-06T11:35:23.269Z,945.5
2022-11-06T11:36:29.402Z,945.5
2022-11-06T11:37:35.575Z,945.5
2022-11-06T11:38:41.755Z,945.4
2022-11-06T11:39:47.920Z,945.4
2022-11-06T11:40:54.097Z,945.4
2022-11-06T11:42:00.257Z,945.5
2022-11-06T11:43:06.440Z,945.5
2022-11-06T11:44:11.617Z,945.5
2022-11-06T11:45:17.792Z,945.5
2022-11-06T11:46:23.968Z,945.5
2022-11-06T11:47:30.122Z,945.5
2022-11-06T11:48:36.360Z,945.5
2022-11-06T11:49:42.466Z,945.5
2022-11-06T11:50:47.668Z,945.5
2022-11-06T11:51:53.813Z,945.5
2022-11-06T11:52:59.987Z,945.5
2022-11-06T11:54:06.155Z,945.5
2022-11-06T11:55:12.330Z,945.4
2022-11-06T11:56:18.502Z,945.4
2022-11-06T11:57:24.664Z,945.4
2022-11-06T11:58:30.826Z,945.3
2022-11-06T11:59:37.011Z,945.3
2022-11-06T12:00:43.167Z,945.2
2022-11-06T12:01:49.405Z,945.2
2022-11-06T12:02:55.519Z,945.3
2022-11-06T12:04:01.678Z,945.2
2022-11-06T12:05:06.917Z,945.2
2022-11-06T12:06:13.046Z,945.2
2022-11-06T12:07:19.217Z,945.2
2022-11-06T12:08:25.370Z,945.3
2022-11-06T12:09:31.542Z,945.3
2022-11-06T12:10:37.717Z,945.2
2022-11-06T12:11:43.879Z,945.2
2022-11-06T12:12:50.053Z,945.1
2022-11-06T12:13:56.254Z,945.1
2022-11-06T12:15:02.404Z,945
2022-11-06T12:16:08.627Z,945
2022-11-06T12:17:14.729Z,945
2022-11-06T12:18:20.921Z,945
2022-11-06T12:19:26.077Z,945.1
2022-11-06T12:20:32.250Z,945.1
2022-11-06T12:21:38.420Z,945.1
2022-11-06T12:22:44.601Z,945.1
2022-11-06T12:24:57.026Z,944.9
2022-11-06T12:26:03.099Z,945
2022-11-06T12:27:09.280Z,945
2022-11-06T12:28:15.457Z,945
2022-11-06T12:29:21.623Z,945
2022-11-06T12:30:27.800Z,945
2022-11-06T12:31:33.955Z,945
2022-11-06T12:32:40.244Z,945
2022-11-06T12:33:45.305Z,945.1
2022-11-06T12:34:51.536Z,945.1
2022-11-06T12:35:57.642Z,945
2022-11-06T12:37:03.803Z,945
2022-11-06T12:38:09.978Z,945
2022-11-06T12:39:16.194Z,945
2022-11-06T12:40:22.330Z,945.1
2022-11-06T12:41:28.496Z,945.1
2022-11-06T12:42:34.688Z,945.1
2022-11-06T12:43:40.877Z,945.1
2022-11-06T12:44:47.019Z,945
2022-11-06T12:45:53.208Z,945
2022-11-06T12:46:59.376Z,945
2022-11-06T12:48:04.540Z,945.1
2022-11-06T12:49:10.687Z,945.1
2022-11-06T12:50:16.862Z,945.1
2022-11-06T12:51:23.082Z,945
2022-11-06T12:52:29.208Z,945
2022-11-06T12:53:35.387Z,945
2022-11-06T12:54:41.579Z,945
2022-11-06T12:55:47.705Z,945
2022-11-06T12:56:53.890Z,945.1
2022-11-06T12:58:00.071Z,945
2022-11-06T12:59:06.219Z,945.1
2022-11-06T13:00:12.405Z,945.1
2022-11-06T13:01:18.574Z,945.1
2022-11-06T13:02:23.766Z,945
2022-11-06T13:03:29.960Z,945
2022-11-06T13:04:36.113Z,945
2022-11-06T13:05:42.297Z,945
2022-11-06T13:06:48.432Z,944.9
2022-11-06T13:07:54.585Z,944.9
2022-11-06T13:09:00.766Z,944.9
2022-11-06T13:10:06.932Z,944.9
2022-11-06T13:11:13.188Z,944.9
2022-11-06T13:12:19.277Z,944.8
2022-11-06T13:13:25.455Z,944.8
2022-11-06T13:14:31.620Z,944.8
2022-11-06T13:15:37.781Z,944.8
2022-11-06T13:16:42.960Z,944.8
2022-11-06T13:17:49.131Z,944.8
2022-11-06T13:18:55.303Z,944.8
2022-11-06T13:20:01.468Z,944.8
2022-11-06T13:21:07.676Z,944.8
2022-11-06T13:22:13.821Z,944.9
2022-11-06T13:23:19.978Z,944.9
2022-11-06T13:24:26.155Z,944.9
2022-11-06T13:25:32.327Z,944.9
2022-11-06T13:26:38.560Z,944.9
2022-11-06T13:27:44.726Z,944.8
2022-11-06T13:28:50.832Z,944.8
2022-11-06T13:29:57.034Z,944.8
2022-11-06T13:31:02.245Z,944.8
2022-11-06T13:32:08.416Z,944.8
2022-11-06T13:33:14.510Z,944.8
2022-11-06T13:34:20.702Z,944.8
2022-11-06T13:35:26.873Z,944.8
2022-11-06T13:36:33.037Z,944.8
2022-11-06T13:37:39.239Z,944.7
2022-11-06T13:38:45.417Z,944.7
2022-11-06T13:39:51.538Z,944.7
2022-11-06T13:40:57.728Z,944.7
2022-11-06T13:42:03.875Z,944.7
2022-11-06T13:43:10.058Z,944.7
2022-11-06T13:44:16.228Z,944.7
2022-11-06T13:45:21.464Z,944.7
2022-11-06T13:46:27.565Z,944.7
2022-11-06T13:47:33.739Z,944.7
2022-11-06T13:48:39.963Z,944.7
2022-11-06T13:49:46.114Z,944.7
2022-11-06T13:50:52.281Z,944.7
2022-11-06T13:51:58.424Z,944.7
2022-11-06T13:53:04.601Z,944.6
2022-11-06T13:54:10.773Z,944.6
2022-11-06T13:55:17.023Z,944.6
2022-11-06T13:56:23.114Z,944.6
2022-11-06T13:57:29.287Z,944.6
2022-11-06T13:58:35.431Z,944.6
2022-11-06T13:59:40.637Z,944.6
2022-11-06T14:00:46.791Z,944.7
2022-11-06T14:01:52.954Z,944.7
2022-11-06T14:02:59.218Z,944.7
2022-11-06T14:04:05.319Z,944.7
2022-11-06T14:05:11.473Z,944.7
2022-11-06T14:06:17.703Z,944.7
2022-11-06T14:07:23.803Z,944.7
2022-11-06T14:08:29.988Z,944.7
2022-11-06T14:09:36.157Z,944.7
2022-11-06T14:10:42.393Z,944.7
2022-11-06T14:11:48.475Z,944.7
2022-11-06T14:12:54.669Z,944.7
2022-11-06T14:13:59.856Z,944.7
2022-11-06T14:15:06.012Z,944.8
2022-11-06T14:16:12.287Z,944.8
2022-11-06T14:17:18.389Z,944.8
2022-11-06T14:18:24.519Z,944.8
2022-11-06T14:19:30.704Z,944.8
2022-11-06T14:20:36.866Z,944.8
2022-11-06T14:21:43.065Z,944.8